Time;durP1;ratioP1;P1;durP2;ratioP2;P2;SDS_P1;SDS_P2;PMS_P1;PMS_P2;Temp;Humidity;BMP_temperature;BMP_pressure;BME280_temperature;BME280_humidity;BME280_pressure;Samples;Min_cycle;Max_cycle;Signal;HPM_P1;HPM_P2
2022/12/23 00:03:14;;;;;;;10.67;5.10;;;10.30;99.90;;;;;;10430810;28;20276;-70
2022/12/23 00:08:15;;;;;;;11.47;5.07;;;10.30;99.90;;;;;;10406240;28;20276;-70
2022/12/23 00:18:35;;;;;;;15.27;5.13;;;10.30;99.90;;;;;;10425004;28;20242;-70
2022/12/23 00:23:39;;;;;;;8.67;4.80;;;10.30;99.90;;;;;;10428053;28;20845;-70
2022/12/23 00:28:40;;;;;;;13.20;5.37;;;10.40;99.90;;;;;;10425048;28;20227;-70
2022/12/23 00:33:43;;;;;;;13.97;5.77;;;10.30;99.90;;;;;;10428957;28;20229;-69
2022/12/23 00:44:03;;;;;;;11.10;5.30;;;10.30;99.90;;;;;;10430730;28;20222;-70
2022/12/23 00:54:26;;;;;;;14.07;6.00;;;10.30;99.90;;;;;;10430457;28;20316;-70
2022/12/23 00:59:27;;;;;;;13.83;6.10;;;10.40;99.90;;;;;;10426174;28;20233;-69
2022/12/23 01:09:47;;;;;;;9.93;5.80;;;10.40;99.90;;;;;;10447724;28;20226;-70
2022/12/23 01:14:48;;;;;;;13.40;6.17;;;10.40;99.90;;;;;;10450894;28;20221;-70
2022/12/23 01:19:48;;;;;;;13.53;6.90;;;10.40;99.90;;;;;;10431106;28;20222;-70
2022/12/23 01:24:49;;;;;;;11.80;5.90;;;10.40;99.90;;;;;;10432822;28;20677;-69
2022/12/23 01:29:49;;;;;;;14.53;7.63;;;10.40;99.90;;;;;;10431557;28;20318;-69
2022/12/23 01:34:50;;;;;;;19.50;8.30;;;10.40;99.90;;;;;;10430801;28;20577;-70
2022/12/23 01:39:50;;;;;;;17.70;9.97;;;10.40;99.90;;;;;;10412986;28;20230;-71
2022/12/23 01:44:58;;;;;;;13.47;9.50;;;10.30;99.90;;;;;;10442115;28;20216;-69
2022/12/23 01:50:12;;;;;;;16.53;9.63;;;10.30;99.90;;;;;;10448190;28;20422;-70
2022/12/23 01:55:17;;;;;;;37.10;12.13;;;10.30;99.90;;;;;;10427431;28;20218;-71
2022/12/23 02:05:38;;;;;;;21.57;10.87;;;10.30;99.90;;;;;;10431969;28;20869;-70
2022/12/23 02:11:05;;;;;;;31.07;12.23;;;10.30;99.90;;;;;;10428808;28;20261;-70
2022/12/23 02:16:17;;;;;;;22.93;10.97;;;10.30;99.90;;;;;;10427426;28;20214;-70
2022/12/23 02:21:36;;;;;;;23.33;10.87;;;10.30;99.90;;;;;;10416040;28;20238;-69
2022/12/23 02:27:01;;;;;;;27.10;11.60;;;10.40;99.90;;;;;;10419576;28;20263;-70
2022/12/23 02:32:09;;;;;;;32.77;12.77;;;10.40;99.90;;;;;;10431778;28;20230;-70
2022/12/23 02:37:13;;;;;;;35.83;14.30;;;10.40;99.90;;;;;;10415964;28;20280;-70
2022/12/23 02:42:16;;;;;;;30.03;14.70;;;10.40;99.90;;;;;;10414783;28;20784;-70
2022/12/23 02:47:23;;;;;;;39.17;17.63;;;10.40;99.90;;;;;;10425136;28;20278;-70
2022/12/23 02:52:30;;;;;;;33.37;16.47;;;10.40;99.90;;;;;;10432910;28;20308;-70
2022/12/23 02:57:37;;;;;;;47.93;17.47;;;10.40;99.90;;;;;;10436869;28;20218;-69
2022/12/23 03:02:40;;;;;;;45.73;17.53;;;10.30;99.90;;;;;;10429499;28;20239;-70
2022/12/23 03:07:42;;;;;;;47.23;16.87;;;10.30;99.90;;;;;;10427358;28;20325;-69
2022/12/23 03:13:19;;;;;;;26.93;14.90;;;10.30;99.90;;;;;;10438596;28;20229;-69
2022/12/23 03:18:31;;;;;;;43.10;14.43;;;10.30;99.90;;;;;;10434457;28;20220;-69
2022/12/23 03:23:54;;;;;;;30.30;12.87;;;10.30;99.90;;;;;;10407581;28;20809;-70
2022/12/23 03:29:04;;;;;;;29.50;12.30;;;10.30;99.90;;;;;;10409463;28;20636;-69
2022/12/23 03:34:09;;;;;;;31.73;11.73;;;10.30;99.90;;;;;;10412650;28;20228;-71
2022/12/23 03:39:18;;;;;;;33.47;12.07;;;10.30;99.90;;;;;;10424805;28;20235;-70
2022/12/23 03:44:25;;;;;;;29.70;12.17;;;10.30;99.90;;;;;;10441107;28;20305;-70
2022/12/23 03:49:34;;;;;;;38.87;13.60;;;10.30;99.90;;;;;;10424713;28;20683;-70
2022/12/23 03:55:00;;;;;;;39.37;13.67;;;10.30;99.90;;;;;;10425681;28;20234;-71
2022/12/23 04:00:01;;;;;;;36.03;13.90;;;10.20;99.90;;;;;;10426922;28;20310;-70
2022/12/23 04:05:25;;;;;;;30.40;12.53;;;10.20;99.90;;;;;;10425756;28;20302;-69
2022/12/23 04:10:26;;;;;;;30.87;13.33;;;10.20;99.90;;;;;;10407059;28;20681;-69
2022/12/23 04:15:28;;;;;;;25.80;12.70;;;10.20;99.90;;;;;;10429990;28;20186;-69
2022/12/23 04:20:29;;;;;;;22.30;12.13;;;10.00;99.90;;;;;;10423759;28;20235;-70
2022/12/23 04:25:30;;;;;;;28.27;11.87;;;9.90;99.90;;;;;;10438884;28;20233;-69
2022/12/23 04:30:30;;;;;;;22.93;11.73;;;9.70;99.90;;;;;;10436853;28;20610;-69
2022/12/23 04:35:31;;;;;;;22.53;11.10;;;9.50;99.90;;;;;;10412278;28;20223;-72
2022/12/23 04:40:31;;;;;;;20.40;9.93;;;9.50;99.90;;;;;;10413516;28;20231;-69
2022/12/23 04:45:32;;;;;;;18.50;10.83;;;9.40;99.90;;;;;;10435724;28;20916;-70
2022/12/23 04:50:33;;;;;;;27.20;13.00;;;9.30;99.90;;;;;;10431313;28;20747;-69
2022/12/23 04:55:33;;;;;;;17.73;9.33;;;9.40;99.90;;;;;;10435279;28;20229;-70
2022/12/23 05:00:34;;;;;;;18.63;9.00;;;9.40;99.90;;;;;;10437510;28;20231;-70
2022/12/23 05:05:34;;;;;;;14.47;7.00;;;9.40;99.90;;;;;;10416639;28;20291;-70
2022/12/23 05:10:35;;;;;;;12.90;6.17;;;9.40;99.90;;;;;;10445632;28;20229;-69
2022/12/23 05:15:36;;;;;;;9.90;6.53;;;9.50;99.90;;;;;;10416262;28;20252;-69
2022/12/23 05:20:36;;;;;;;13.50;6.37;;;9.50;99.90;;;;;;10430652;28;20242;-70
2022/12/23 05:25:38;;;;;;;9.33;5.80;;;9.60;99.90;;;;;;10416287;28;20225;-70
2022/12/23 05:30:39;;;;;;;8.97;5.20;;;9.60;99.90;;;;;;10423817;28;20246;-70
2022/12/23 05:35:39;;;;;;;8.57;5.60;;;9.60;99.90;;;;;;10441019;28;20253;-70
2022/12/23 05:40:40;;;;;;;10.77;5.30;;;9.50;99.90;;;;;;10430434;28;20599;-70
2022/12/23 05:45:41;;;;;;;7.70;5.23;;;9.50;99.90;;;;;;10440003;28;20253;-69
2022/12/23 05:50:41;;;;;;;15.57;9.30;;;9.50;99.90;;;;;;10431880;28;20329;-70
2022/12/23 05:55:42;;;;;;;13.87;8.53;;;9.50;99.90;;;;;;10438011;28;20705;-69
2022/12/23 06:00:43;;;;;;;18.50;10.17;;;9.60;99.90;;;;;;10431229;28;20233;-70
2022/12/23 06:05:43;;;;;;;12.10;8.53;;;9.70;99.90;;;;;;10429918;28;20233;-70
2022/12/23 06:10:44;;;;;;;9.50;5.93;;;9.80;99.90;;;;;;10434273;28;20313;-69
2022/12/23 06:15:45;;;;;;;9.80;6.93;;;9.90;99.90;;;;;;10430485;28;20587;-70
2022/12/23 06:20:46;;;;;;;8.57;5.70;;;10.00;99.90;;;;;;10429858;28;20424;-69
2022/12/23 06:25:47;;;;;;;7.37;5.27;;;10.00;99.90;;;;;;10437848;28;20312;-70
2022/12/23 06:30:54;;;;;;;7.40;4.40;;;10.10;99.90;;;;;;10429693;28;20233;-70
2022/12/23 06:35:55;;;;;;;8.07;4.60;;;10.10;99.90;;;;;;10410901;28;20310;-70
2022/12/23 06:40:56;;;;;;;7.90;4.53;;;10.20;99.90;;;;;;10430608;28;20238;-70
2022/12/23 06:45:56;;;;;;;7.07;4.43;;;10.20;99.90;;;;;;10427466;28;20222;-70
2022/12/23 06:50:57;;;;;;;6.07;4.80;;;10.20;99.90;;;;;;10430382;28;20232;-69
2022/12/23 06:55:59;;;;;;;8.20;5.13;;;10.20;99.90;;;;;;10409967;28;20591;-70
2022/12/23 07:01:00;;;;;;;7.37;4.90;;;10.10;99.90;;;;;;10432304;28;20231;-70
2022/12/23 07:06:01;;;;;;;8.73;4.93;;;10.10;99.90;;;;;;10450185;28;20223;-70
2022/12/23 07:11:02;;;;;;;8.07;4.30;;;10.10;99.90;;;;;;10430206;28;20222;-69
2022/12/23 07:16:07;;;;;;;5.33;4.13;;;10.10;99.90;;;;;;10426053;28;20222;-69
2022/12/23 07:21:08;;;;;;;5.40;4.07;;;10.10;99.90;;;;;;10412707;28;20647;-69
2022/12/23 07:26:08;;;;;;;5.53;3.47;;;10.10;99.90;;;;;;10425056;28;20306;-71
2022/12/23 07:31:09;;;;;;;4.50;3.30;;;10.20;99.90;;;;;;10439490;28;20222;-70
2022/12/23 07:36:10;;;;;;;4.03;3.40;;;10.20;99.90;;;;;;10424825;28;20222;-70
2022/12/23 07:41:10;;;;;;;5.10;3.03;;;10.30;99.90;;;;;;10439299;28;20223;-70
2022/12/23 07:46:11;;;;;;;5.03;3.13;;;10.40;99.90;;;;;;10432447;28;20696;-69
2022/12/23 07:51:12;;;;;;;5.77;2.97;;;10.40;99.90;;;;;;10405906;28;20222;-68
2022/12/23 07:56:13;;;;;;;5.07;2.60;;;10.50;99.90;;;;;;10413398;28;20707;-69
2022/12/23 08:01:17;;;;;;;3.70;2.77;;;10.60;99.90;;;;;;10440057;28;20389;-69
2022/12/23 08:06:18;;;;;;;2.73;2.53;;;10.60;99.90;;;;;;10439394;28;20218;-70
2022/12/23 08:11:18;;;;;;;4.20;2.60;;;10.70;99.90;;;;;;10431249;28;20214;-70
2022/12/23 08:16:20;;;;;;;5.80;2.67;;;10.80;99.90;;;;;;10430214;28;20219;-70
2022/12/23 08:21:21;;;;;;;3.00;2.77;;;10.80;99.90;;;;;;10438775;28;20225;-70
2022/12/23 08:26:23;;;;;;;4.40;2.30;;;10.90;99.90;;;;;;10412325;28;20245;-70
2022/12/23 08:31:30;;;;;;;2.90;2.50;;;10.90;99.90;;;;;;10442265;28;20288;-70
2022/12/23 08:36:33;;;;;;;3.87;2.20;;;11.00;99.90;;;;;;10419219;28;20304;-68
2022/12/23 08:41:41;;;;;;;2.20;2.10;;;11.20;99.90;;;;;;10431943;28;20233;-69
2022/12/23 08:46:52;;;;;;;4.07;2.03;;;11.20;99.90;;;;;;10435298;28;20581;-69
2022/12/23 08:51:52;;;;;;;2.27;1.90;;;11.30;99.90;;;;;;10434521;28;20314;-70
2022/12/23 08:56:53;;;;;;;2.80;1.93;;;11.30;99.90;;;;;;10441223;28;20803;-70
2022/12/23 09:01:53;;;;;;;2.30;2.10;;;11.20;99.90;;;;;;10439926;28;20280;-70
2022/12/23 09:06:54;;;;;;;3.43;2.10;;;11.10;99.90;;;;;;10421927;28;20310;-70
2022/12/23 09:11:55;;;;;;;2.90;1.83;;;11.20;99.90;;;;;;10433611;28;20299;-70
2022/12/23 09:16:55;;;;;;;3.13;1.80;;;11.30;99.90;;;;;;10437126;28;20213;-70
2022/12/23 09:21:56;;;;;;;3.67;1.70;;;11.40;99.90;;;;;;10431724;28;20603;-70
2022/12/23 09:27:03;;;;;;;2.93;1.70;;;11.40;99.90;;;;;;10440065;28;20242;-70
2022/12/23 09:32:05;;;;;;;4.00;1.73;;;11.40;99.90;;;;;;10429401;28;20263;-70
2022/12/23 09:37:05;;;;;;;1.80;1.70;;;11.40;99.90;;;;;;10437460;28;20768;-69
2022/12/23 09:42:19;;;;;;;2.43;2.07;;;11.40;99.90;;;;;;10428415;28;20304;-70
2022/12/23 09:47:26;;;;;;;3.13;1.77;;;11.50;99.90;;;;;;10435562;28;20804;-70
2022/12/23 09:53:00;;;;;;;3.77;2.20;;;11.60;99.90;;;;;;10436743;28;20217;-70
2022/12/23 09:58:06;;;;;;;3.30;2.43;;;11.70;99.90;;;;;;10433048;28;20695;-69
2022/12/23 10:03:15;;;;;;;3.27;2.00;;;11.90;99.90;;;;;;10428607;28;20229;-70
2022/12/23 10:08:33;;;;;;;3.20;1.83;;;11.90;99.90;;;;;;10434946;28;20221;-70
2022/12/23 10:13:55;;;;;;;1.90;1.70;;;11.90;99.90;;;;;;10428793;28;20217;-70
2022/12/23 10:19:01;;;;;;;5.50;2.17;;;11.90;99.90;;;;;;10411477;28;20221;-70
2022/12/23 10:24:25;;;;;;;2.37;2.00;;;11.90;99.90;;;;;;10432374;28;20587;-70
2022/12/23 10:29:30;;;;;;;4.00;2.13;;;11.80;99.90;;;;;;10426563;28;20269;-68
2022/12/23 10:34:58;;;;;;;4.43;2.00;;;11.80;99.90;;;;;;10432818;28;20263;-69
2022/12/23 10:40:10;;;;;;;2.63;1.70;;;11.80;99.90;;;;;;10438788;28;20292;-69
2022/12/23 10:45:28;;;;;;;2.37;1.60;;;11.80;99.90;;;;;;10426043;28;20215;-69
2022/12/23 10:50:45;;;;;;;4.13;2.17;;;11.80;99.90;;;;;;10435769;28;20304;-69
2022/12/23 10:55:48;;;;;;;4.20;1.50;;;11.70;99.90;;;;;;10410537;28;20356;-69
2022/12/23 11:00:55;;;;;;;2.00;1.80;;;11.70;99.90;;;;;;10435021;28;20321;-69
2022/12/23 11:05:57;;;;;;;2.23;2.00;;;11.70;99.90;;;;;;10427708;28;20218;-69
2022/12/23 11:11:00;;;;;;;3.07;2.73;;;11.70;99.90;;;;;;10433098;28;20216;-69
2022/12/23 11:16:20;;;;;;;5.67;3.80;;;11.80;99.90;;;;;;10430042;28;20601;-69
2022/12/23 11:21:20;;;;;;;3.73;2.70;;;11.70;99.90;;;;;;10431928;28;20765;-69
2022/12/23 11:26:21;;;;;;;10.10;4.20;;;11.70;99.90;;;;;;10405841;28;20271;-69
2022/12/23 11:31:27;;;;;;;5.97;3.70;;;11.60;99.90;;;;;;10425697;28;20243;-69
2022/12/23 11:36:29;;;;;;;4.80;3.70;;;11.60;99.90;;;;;;10436730;28;20258;-70
2022/12/23 11:41:44;;;;;;;6.43;3.27;;;11.60;99.90;;;;;;10407156;28;20290;-69
2022/12/23 11:46:44;;;;;;;3.73;3.30;;;11.70;99.90;;;;;;10435924;28;20741;-69
2022/12/23 11:51:57;;;;;;;5.13;2.77;;;11.70;99.90;;;;;;10427085;28;20317;-68
2022/12/23 11:57:01;;;;;;;4.53;3.50;;;11.70;99.90;;;;;;10426385;28;20376;-69
2022/12/23 12:02:15;;;;;;;8.07;3.10;;;11.70;99.90;;;;;;10411338;28;20245;-69
2022/12/23 12:07:18;;;;;;;4.10;3.07;;;11.70;99.90;;;;;;10423770;28;20664;-69
2022/12/23 12:12:20;;;;;;;5.77;3.40;;;11.70;99.90;;;;;;10430926;28;20226;-70
2022/12/23 12:17:32;;;;;;;5.07;3.07;;;11.80;99.90;;;;;;10422950;28;20696;-70
2022/12/23 12:22:36;;;;;;;7.13;3.37;;;11.80;99.90;;;;;;10428931;28;20230;-69
2022/12/23 12:27:39;;;;;;;4.63;3.27;;;11.80;99.90;;;;;;10424901;28;20750;-69
2022/12/23 12:32:51;;;;;;;4.37;3.37;;;11.80;99.90;;;;;;10427510;28;20237;-69
2022/12/23 12:38:03;;;;;;;3.80;3.13;;;11.80;99.90;;;;;;10426894;28;20249;-70
2022/12/23 12:43:22;;;;;;;4.57;3.33;;;11.90;99.90;;;;;;10425714;28;20279;-70
2022/12/23 12:49:04;;;;;;;5.00;3.50;;;11.90;99.90;;;;;;10416412;28;20237;-70
2022/12/23 12:54:25;;;;;;;4.00;3.30;;;12.00;99.90;;;;;;10439045;28;20244;-70
2022/12/23 12:59:35;;;;;;;6.03;3.33;;;12.00;99.90;;;;;;10429207;28;20537;-70
2022/12/23 13:05:04;;;;;;;4.57;3.47;;;12.00;99.90;;;;;;10444506;28;20216;-70
2022/12/23 13:10:08;;;;;;;4.17;3.73;;;11.90;99.90;;;;;;10439766;28;20216;-70
2022/12/23 13:15:35;;;;;;;5.67;4.60;;;11.90;99.90;;;;;;10410889;28;20325;-70
2022/12/23 13:20:51;;;;;;;4.90;4.40;;;12.00;99.90;;;;;;10437741;28;20268;-70
2022/12/23 13:26:02;;;;;;;4.47;4.07;;;11.90;99.90;;;;;;10432307;28;20685;-70
2022/12/23 13:31:31;;;;;;;5.43;4.40;;;11.90;99.90;;;;;;10418908;28;20268;-70
2022/12/23 13:37:08;;;;;;;7.43;5.70;;;11.90;99.90;;;;;;10458729;28;20563;-70
2022/12/23 13:42:23;;;;;;;6.63;5.83;;;11.80;99.90;;;;;;10428740;28;20229;-70
2022/12/23 13:48:04;;;;;;;6.90;6.20;;;11.80;99.90;;;;;;10428012;28;20811;-71
2022/12/23 13:53:32;;;;;;;6.50;5.90;;;11.70;99.90;;;;;;10356634;28;20225;-70
2022/12/23 13:58:33;;;;;;;6.37;5.50;;;11.70;99.90;;;;;;10428537;28;20230;-70
2022/12/23 14:03:37;;;;;;;7.27;5.97;;;11.70;99.90;;;;;;10432698;28;20233;-69
2022/12/23 14:08:41;;;;;;;11.47;7.57;;;11.80;99.90;;;;;;10429381;28;20802;-70
2022/12/23 14:13:50;;;;;;;8.33;7.47;;;11.80;99.90;;;;;;10431242;28;20305;-70
2022/12/23 14:19:07;;;;;;;11.20;9.23;;;11.80;99.90;;;;;;10430163;28;20698;-70
2022/12/23 14:24:34;;;;;;;14.30;11.83;;;11.80;99.90;;;;;;10426084;28;20216;-70
2022/12/23 14:29:44;;;;;;;15.50;13.70;;;11.90;99.90;;;;;;10410286;28;20244;-70
2022/12/23 14:35:13;;;;;;;16.47;13.87;;;11.90;99.90;;;;;;10428557;28;20251;-70
2022/12/23 14:40:38;;;;;;;14.77;13.23;;;11.90;99.90;;;;;;10407474;28;20233;-70
2022/12/23 14:45:45;;;;;;;14.27;12.90;;;11.90;99.90;;;;;;10435221;28;20231;-70
2022/12/23 14:50:56;;;;;;;13.80;12.47;;;11.90;99.90;;;;;;10429630;28;20320;-69
2022/12/23 14:56:31;;;;;;;14.60;13.07;;;12.00;99.90;;;;;;10431609;28;20212;-69
2022/12/23 15:01:42;;;;;;;15.00;12.70;;;12.00;99.90;;;;;;10433229;28;20229;-69
2022/12/23 15:06:50;;;;;;;18.17;13.33;;;12.00;99.90;;;;;;10432437;28;20637;-70
2022/12/23 15:11:53;;;;;;;20.50;14.23;;;12.00;99.90;;;;;;10428320;28;20229;-69
2022/12/23 15:16:56;;;;;;;18.47;14.43;;;12.10;99.90;;;;;;10446958;28;20226;-68
2022/12/23 15:22:10;;;;;;;23.27;17.03;;;12.10;99.90;;;;;;10429036;28;20748;-70
2022/12/23 15:27:18;;;;;;;18.37;14.73;;;12.10;99.90;;;;;;10407313;28;20744;-70
2022/12/23 15:32:22;;;;;;;16.73;13.07;;;12.10;99.90;;;;;;10424657;28;20213;-69
2022/12/23 15:37:30;;;;;;;15.13;12.17;;;12.10;99.90;;;;;;10415370;28;20246;-70
2022/12/23 15:42:32;;;;;;;13.10;10.77;;;12.20;99.90;;;;;;10412330;28;20238;-68
2022/12/23 15:47:42;;;;;;;11.50;9.47;;;12.20;99.90;;;;;;10425384;28;20249;-68
2022/12/23 15:53:01;;;;;;;9.87;7.10;;;12.20;99.90;;;;;;10429259;28;20219;-69
2022/12/23 15:58:03;;;;;;;11.93;8.30;;;12.30;99.90;;;;;;10418966;28;20221;-70
2022/12/23 16:03:05;;;;;;;12.63;7.93;;;12.30;99.90;;;;;;10425182;28;20239;-70
2022/12/23 16:08:14;;;;;;;11.40;7.10;;;12.20;99.90;;;;;;10411632;28;20291;-68
2022/12/23 16:13:17;;;;;;;13.23;7.47;;;12.30;99.90;;;;;;10423890;28;20233;-69
2022/12/23 16:18:18;;;;;;;6.97;6.10;;;12.30;99.90;;;;;;10425000;28;20233;-70
2022/12/23 16:23:19;;;;;;;9.53;6.10;;;12.30;99.90;;;;;;10436472;28;20324;-69
2022/12/23 16:28:38;;;;;;;4.83;4.10;;;12.30;99.90;;;;;;10413107;28;20391;-69
2022/12/23 16:33:52;;;;;;;6.03;4.40;;;12.40;99.90;;;;;;10415390;28;20240;-69
2022/12/23 16:39:07;;;;;;;8.83;7.13;;;12.40;99.90;;;;;;10434529;28;20220;-69
2022/12/23 16:44:08;;;;;;;12.27;9.43;;;12.50;99.90;;;;;;10419917;28;20255;-69
2022/12/23 16:49:14;;;;;;;13.00;7.70;;;12.40;99.90;;;;;;10450907;28;20303;-69
2022/12/23 16:54:18;;;;;;;11.70;5.00;;;12.40;99.90;;;;;;10412337;28;20217;-70
2022/12/23 16:59:19;;;;;;;11.03;3.60;;;12.50;99.90;;;;;;10436894;28;20233;-68
2022/12/23 17:04:20;;;;;;;3.90;2.77;;;12.40;99.90;;;;;;10429470;28;20274;-69
2022/12/23 17:09:20;;;;;;;5.37;4.30;;;12.50;99.90;;;;;;10436858;28;20704;-70
2022/12/23 17:14:24;;;;;;;4.60;3.00;;;12.50;99.90;;;;;;10444586;28;20228;-69
2022/12/23 17:19:24;;;;;;;4.27;2.47;;;12.50;99.90;;;;;;10418932;28;20233;-69
2022/12/23 17:24:26;;;;;;;0.83;0.53;;;12.50;99.90;;;;;;10429678;28;20217;-70
2022/12/23 17:29:27;;;;;;;1.03;0.70;;;12.20;99.90;;;;;;10418314;28;20219;-69
2022/12/23 17:34:27;;;;;;;1.27;0.80;;;12.00;99.90;;;;;;10443698;28;20232;-70
2022/12/23 17:39:28;;;;;;;0.93;0.60;;;11.90;99.90;;;;;;10435034;28;20317;-70
2022/12/23 17:44:28;;;;;;;2.27;0.87;;;11.90;99.90;;;;;;10431057;28;20229;-70
2022/12/23 17:49:29;;;;;;;1.17;0.70;;;11.80;99.90;;;;;;10430882;28;20237;-70
2022/12/23 17:54:29;;;;;;;2.63;1.00;;;11.80;99.90;;;;;;10410827;28;20304;-70
2022/12/23 17:59:30;;;;;;;5.30;2.00;;;11.80;99.90;;;;;;10418833;28;20226;-69
2022/12/23 18:04:31;;;;;;;6.40;2.80;;;11.80;99.90;;;;;;10415868;28;20276;-70
2022/12/23 18:09:31;;;;;;;7.77;4.47;;;11.90;99.90;;;;;;10427910;28;20255;-68
2022/12/23 18:14:32;;;;;;;5.87;4.03;;;12.00;99.90;;;;;;10433524;28;20601;-69
2022/12/23 18:19:32;;;;;;;4.77;3.87;;;12.10;99.90;;;;;;10428212;28;20236;-70
2022/12/23 18:24:33;;;;;;;5.67;3.37;;;12.10;99.90;;;;;;10415168;28;20252;-70
2022/12/23 18:29:34;;;;;;;6.67;3.60;;;12.10;99.90;;;;;;10428342;28;20331;-68
2022/12/23 18:34:34;;;;;;;6.57;2.90;;;12.10;99.90;;;;;;10425972;28;20243;-69
2022/12/23 18:39:35;;;;;;;8.17;3.00;;;12.10;99.90;;;;;;10444023;28;20224;-69
2022/12/23 18:44:38;;;;;;;5.50;3.37;;;12.20;99.90;;;;;;10430696;28;20221;-69
2022/12/23 18:49:39;;;;;;;6.50;3.23;;;12.10;99.90;;;;;;10409707;28;20621;-69
2022/12/23 18:54:40;;;;;;;6.47;3.27;;;12.10;99.90;;;;;;10430624;28;20217;-69
2022/12/23 18:59:40;;;;;;;4.10;3.10;;;12.10;99.90;;;;;;10417095;28;20229;-68
2022/12/23 19:04:41;;;;;;;5.90;3.00;;;12.00;99.90;;;;;;10412447;28;20245;-68
2022/12/23 19:09:42;;;;;;;8.07;3.17;;;11.90;99.90;;;;;;10415256;28;20223;-70
2022/12/23 19:14:42;;;;;;;7.20;3.30;;;12.00;99.90;;;;;;10428002;28;20600;-70
2022/12/23 19:19:43;;;;;;;5.60;2.80;;;12.00;99.90;;;;;;10426961;28;20229;-69
2022/12/23 19:24:44;;;;;;;6.70;3.27;;;12.00;99.90;;;;;;10442671;28;20266;-69
2022/12/23 19:29:44;;;;;;;7.10;3.60;;;11.90;99.90;;;;;;10444600;28;20559;-69
2022/12/23 19:34:45;;;;;;;8.37;4.33;;;11.90;99.90;;;;;;10431602;28;20326;-69
2022/12/23 19:39:46;;;;;;;12.10;4.20;;;11.90;99.90;;;;;;10428154;28;20231;-69
2022/12/23 19:44:47;;;;;;;5.63;4.60;;;11.80;99.90;;;;;;10431883;28;20276;-69
2022/12/23 19:49:47;;;;;;;23.17;13.27;;;11.80;99.90;;;;;;10420068;28;20307;-69
2022/12/23 19:54:48;;;;;;;26.43;14.00;;;11.80;99.90;;;;;;10446799;28;20264;-69
2022/12/23 19:59:48;;;;;;;17.40;10.63;;;11.90;99.90;;;;;;10440992;28;20237;-69
2022/12/23 20:04:49;;;;;;;17.03;10.00;;;11.90;99.90;;;;;;10423430;28;20229;-70
2022/12/23 20:09:53;;;;;;;8.97;4.53;;;11.90;99.90;;;;;;10436686;28;20390;-69
2022/12/23 20:14:53;;;;;;;11.07;4.47;;;11.90;99.90;;;;;;10441469;28;20278;-69
2022/12/23 20:19:54;;;;;;;11.47;2.83;;;11.80;99.90;;;;;;10440170;28;20272;-69
2022/12/23 20:24:54;;;;;;;17.43;3.23;;;11.70;99.90;;;;;;10423292;28;20627;-69
2022/12/23 20:29:55;;;;;;;21.77;4.03;;;11.50;99.90;;;;;;10440055;28;20247;-70
2022/12/23 20:34:55;;;;;;;14.63;4.90;;;11.50;99.90;;;;;;10440780;28;20280;-70
2022/12/23 20:39:56;;;;;;;12.20;2.93;;;11.30;99.90;;;;;;10430791;28;20221;-70
2022/12/23 20:44:57;;;;;;;17.53;3.30;;;11.30;99.90;;;;;;10442690;28;20298;-70
2022/12/23 20:49:58;;;;;;;17.23;3.40;;;11.30;99.90;;;;;;10444134;28;20321;-70
2022/12/23 20:55:00;;;;;;;16.70;3.67;;;11.20;99.90;;;;;;10439137;28;20256;-70
2022/12/23 21:00:08;;;;;;;17.13;3.40;;;11.20;99.90;;;;;;10441103;28;20603;-70
2022/12/23 21:05:09;;;;;;;18.77;3.83;;;11.20;99.90;;;;;;10433197;28;20576;-70
2022/12/23 21:10:10;;;;;;;18.73;4.10;;;11.20;99.90;;;;;;10441669;28;20185;-70
2022/12/23 21:15:10;;;;;;;19.10;3.57;;;11.30;99.90;;;;;;10428432;28;20196;-70
2022/12/23 21:20:11;;;;;;;17.00;3.43;;;11.30;99.90;;;;;;10430444;28;20211;-70
2022/12/23 21:25:11;;;;;;;13.60;3.40;;;11.40;99.90;;;;;;10429179;28;20613;-70
2022/12/23 21:30:12;;;;;;;13.27;3.07;;;11.40;99.90;;;;;;10450566;28;20601;-69
2022/12/23 21:35:13;;;;;;;14.20;3.20;;;11.50;99.90;;;;;;10430086;28;20190;-70
2022/12/23 21:40:13;;;;;;;11.73;2.47;;;11.50;99.90;;;;;;10435490;28;20612;-69
2022/12/23 21:45:14;;;;;;;9.87;2.90;;;11.40;99.90;;;;;;10429086;28;20187;-69
2022/12/23 21:50:15;;;;;;;8.27;2.23;;;11.30;99.90;;;;;;10453946;28;20262;-69
2022/12/23 21:55:16;;;;;;;8.67;2.90;;;11.30;99.90;;;;;;10410146;28;20206;-69
2022/12/23 22:00:17;;;;;;;15.20;2.80;;;11.20;99.90;;;;;;10441130;28;20206;-70
2022/12/23 22:05:18;;;;;;;16.50;3.77;;;11.30;99.90;;;;;;10427196;28;20183;-69
2022/12/23 22:10:18;;;;;;;13.37;3.20;;;11.30;99.90;;;;;;10435027;28;20649;-70
2022/12/23 22:15:20;;;;;;;15.13;3.27;;;11.30;99.90;;;;;;10425964;28;20195;-69
2022/12/23 22:20:21;;;;;;;16.17;3.03;;;11.30;99.90;;;;;;10434548;28;20307;-70
2022/12/23 22:25:22;;;;;;;14.20;3.07;;;11.30;99.90;;;;;;10434742;28;20691;-70
2022/12/23 22:30:22;;;;;;;13.13;3.00;;;11.30;99.90;;;;;;10426500;28;20185;-70
2022/12/23 22:35:23;;;;;;;11.07;2.50;;;11.30;99.90;;;;;;10432783;28;20567;-70
2022/12/23 22:40:23;;;;;;;9.17;2.77;;;11.40;99.90;;;;;;10436001;28;20284;-70
2022/12/23 22:45:24;;;;;;;7.67;2.07;;;11.50;99.90;;;;;;10433511;28;20183;-69
2022/12/23 22:50:24;;;;;;;9.83;2.53;;;11.60;99.90;;;;;;10425977;28;20239;-70
2022/12/23 22:55:25;;;;;;;9.27;2.87;;;11.70;99.90;;;;;;10433477;28;20217;-70
2022/12/23 23:00:26;;;;;;;8.80;2.47;;;11.70;99.90;;;;;;10426149;28;20249;-73
2022/12/23 23:05:26;;;;;;;12.13;2.90;;;11.80;99.90;;;;;;10433695;28;20215;-72
2022/12/23 23:10:27;;;;;;;11.07;3.07;;;11.80;99.90;;;;;;10444270;28;20213;-71
2022/12/23 23:15:27;;;;;;;9.63;2.80;;;11.80;99.90;;;;;;10430987;28;20230;-70
2022/12/23 23:20:28;;;;;;;12.57;3.00;;;11.80;99.90;;;;;;10421940;28;20767;-70
2022/12/23 23:25:28;;;;;;;17.67;3.03;;;11.70;99.90;;;;;;10413998;28;20307;-71
2022/12/23 23:30:29;;;;;;;11.73;2.80;;;11.70;99.90;;;;;;10406495;28;20225;-70
2022/12/23 23:35:29;;;;;;;11.07;2.63;;;11.70;99.90;;;;;;10438052;28;20224;-70
2022/12/23 23:40:31;;;;;;;8.73;2.47;;;11.70;99.90;;;;;;10424817;28;20366;-69
2022/12/23 23:45:31;;;;;;;12.47;3.00;;;11.70;99.90;;;;;;10412814;28;20226;-70
2022/12/23 23:50:32;;;;;;;10.67;2.90;;;11.60;99.90;;;;;;10416229;28;20234;-71
2022/12/23 23:55:33;;;;;;;11.93;2.70;;;11.60;99.90;;;;;;10438024;28;20597;-70
